createdAt,value
2022-11-13T00:01:13.579Z,30.35
2022-11-13T00:03:58.793Z,36.58
2022-11-13T00:06:43.874Z,35.70
2022-11-13T00:09:29.497Z,29.13
2022-11-13T00:12:14.309Z,29.10
2022-11-13T00:14:59.518Z,27.35
2022-11-13T00:17:44.467Z,25.95
2022-11-13T00:20:29.342Z,26.88
2022-11-13T00:23:14.316Z,25.40
2022-11-13T00:26:05.771Z,24.38
2022-11-13T00:28:57.993Z,23.20
2022-11-13T00:31:42.971Z,24.00
2022-11-13T00:34:46.590Z,24.65
2022-11-13T00:37:32.894Z,24.17
2022-11-13T00:40:17.578Z,23.88
2022-11-13T00:43:02.381Z,24.30
2022-11-13T00:45:49.922Z,23.20
2022-11-13T00:48:35.182Z,22.63
2022-11-13T00:51:20.340Z,22.58
2022-11-13T00:54:05.313Z,22.17
2022-11-13T00:56:50.140Z,22.52
2022-11-13T00:59:34.967Z,24.20
2022-11-13T01:02:19.809Z,24.70
2022-11-13T01:05:04.884Z,22.83
2022-11-13T01:07:49.819Z,22.15
2022-11-13T01:10:35.413Z,20.60
2022-11-13T01:13:20.573Z,21.92
2022-11-13T01:16:06.279Z,21.40
2022-11-13T01:18:53.445Z,21.42
2022-11-13T01:21:38.068Z,19.65
2022-11-13T01:24:22.973Z,20.50
2022-11-13T01:27:07.714Z,20.40
2022-11-13T01:29:52.372Z,20.33
2022-11-13T01:32:37.097Z,20.90
2022-11-13T01:35:21.942Z,20.35
2022-11-13T01:38:06.775Z,20.10
2022-11-13T01:40:51.565Z,19.33
2022-11-13T01:43:37.408Z,19.15
2022-11-13T01:46:26.917Z,19.25
2022-11-13T01:49:11.608Z,19.05
2022-11-13T01:51:58.669Z,18.30
2022-11-13T01:54:54.987Z,17.85
2022-11-13T01:57:40.770Z,18.33
2022-11-13T02:00:25.935Z,17.40
2022-11-13T02:03:11.441Z,18.63
2022-11-13T02:05:56.214Z,16.13
2022-11-13T02:08:41.278Z,15.80
2022-11-13T02:11:26.299Z,16.90
2022-11-13T02:14:13.604Z,15.90
2022-11-13T02:17:00.792Z,16.90
2022-11-13T02:19:47.990Z,15.45
2022-11-13T02:22:51.814Z,16.63
2022-11-13T02:25:38.977Z,14.80
2022-11-13T02:28:24.008Z,15.30
2022-11-13T02:31:10.381Z,16.02
2022-11-13T02:33:55.351Z,15.93
2022-11-13T02:36:40.061Z,15.40
2022-11-13T02:39:24.969Z,15.65
2022-11-13T02:42:09.699Z,15.10
2022-11-13T02:44:54.806Z,16.33
2022-11-13T02:47:39.706Z,15.43
2022-11-13T02:50:24.924Z,15.10
2022-11-13T02:53:10.032Z,14.40
2022-11-13T02:55:54.874Z,14.60
2022-11-13T02:58:39.799Z,14.73
2022-11-13T03:01:24.540Z,14.98
2022-11-13T03:04:12.339Z,14.48
2022-11-13T03:06:57.137Z,15.23
2022-11-13T03:09:42.020Z,15.20
2022-11-13T03:12:27.177Z,14.90
2022-11-13T03:15:11.825Z,16.30
2022-11-13T03:17:57.268Z,16.90
2022-11-13T03:20:43.748Z,16.10
2022-11-13T03:23:28.826Z,16.67
2022-11-13T03:26:15.539Z,17.48
2022-11-13T03:29:01.730Z,15.95
2022-11-13T03:31:46.543Z,16.40
2022-11-13T03:34:31.484Z,16.35
2022-11-13T03:37:16.666Z,16.67
2022-11-13T03:40:01.571Z,16.13
2022-11-13T03:42:46.843Z,16.77
2022-11-13T03:45:31.655Z,15.82
2022-11-13T03:48:16.767Z,15.80
2022-11-13T03:51:03.271Z,15.75
2022-11-13T03:53:47.952Z,16.55
2022-11-13T03:56:32.855Z,16.27
2022-11-13T03:59:17.626Z,15.30
2022-11-13T04:02:02.263Z,16.45
2022-11-13T04:04:50.156Z,16.25
2022-11-13T04:07:35.180Z,16.15
2022-11-13T04:10:20.058Z,16.05
2022-11-13T04:13:04.722Z,16.17
2022-11-13T04:15:50.777Z,15.63
2022-11-13T04:18:35.922Z,15.57
2022-11-13T04:21:20.695Z,15.98
2022-11-13T04:24:05.645Z,14.95
2022-11-13T04:26:50.330Z,14.50
2022-11-13T04:29:35.071Z,15.25
2022-11-13T04:32:19.880Z,15.02
2022-11-13T04:35:04.851Z,16.17
2022-11-13T04:37:49.638Z,14.88
2022-11-13T04:40:34.237Z,15.13
2022-11-13T04:43:19.008Z,15.23
2022-11-13T04:46:03.796Z,16.08
2022-11-13T04:48:49.748Z,15.20
2022-11-13T04:51:34.822Z,14.68
2022-11-13T04:54:23.074Z,15.88
2022-11-13T04:57:10.615Z,15.10
2022-11-13T04:59:55.314Z,14.50
2022-11-13T05:02:40.122Z,15.18
2022-11-13T05:05:24.808Z,14.40
2022-11-13T05:08:10.337Z,15.73
2022-11-13T05:10:55.457Z,16.67
2022-11-13T05:13:40.089Z,15.55
2022-11-13T05:16:27.038Z,16.25
2022-11-13T05:19:11.871Z,16.00
2022-11-13T05:21:56.607Z,15.95
2022-11-13T05:24:41.349Z,14.52
2022-11-13T05:27:26.136Z,15.43
2022-11-13T05:30:10.970Z,15.75
2022-11-13T05:32:55.698Z,14.80
2022-11-13T05:35:40.602Z,16.10
2022-11-13T05:38:25.799Z,15.05
2022-11-13T05:41:18.215Z,14.95
2022-11-13T05:44:03.458Z,15.35
2022-11-13T05:46:48.363Z,16.75
2022-11-13T05:49:33.074Z,15.13
2022-11-13T05:52:18.971Z,15.52
2022-11-13T05:55:04.606Z,16.05
2022-11-13T05:57:49.669Z,15.38
2022-11-13T06:00:34.403Z,16.80
2022-11-13T06:03:20.002Z,16.20
2022-11-13T06:06:07.087Z,15.20
2022-11-13T06:08:52.537Z,15.05
2022-11-13T06:11:37.218Z,15.02
2022-11-13T06:14:21.997Z,15.18
2022-11-13T06:17:08.025Z,14.50
2022-11-13T06:19:54.063Z,13.82
2022-11-13T06:22:38.827Z,14.52
2022-11-13T06:25:23.650Z,13.98
2022-11-13T06:28:10.934Z,14.23
2022-11-13T06:30:55.815Z,14.30
2022-11-13T06:33:41.227Z,14.88
2022-11-13T06:36:27.378Z,14.07
2022-11-13T06:39:12.576Z,12.35
2022-11-13T06:41:57.262Z,13.80
2022-11-13T06:44:42.057Z,13.23
2022-11-13T06:47:28.032Z,14.85
2022-11-13T06:50:13.079Z,13.73
2022-11-13T06:52:58.162Z,12.68
2022-11-13T06:55:50.060Z,13.48
2022-11-13T06:58:35.245Z,13.50
2022-11-13T07:01:21.548Z,13.07
2022-11-13T07:04:07.952Z,13.55
2022-11-13T07:06:53.132Z,12.68
2022-11-13T07:09:37.750Z,13.90
2022-11-13T07:12:22.633Z,12.90
2022-11-13T07:15:07.799Z,12.70
2022-11-13T07:17:52.881Z,13.20
2022-11-13T07:20:37.679Z,13.35
2022-11-13T07:23:22.556Z,13.50
2022-11-13T07:26:07.437Z,14.00
2022-11-13T07:28:52.147Z,13.55
2022-11-13T07:31:37.034Z,13.25
2022-11-13T07:34:21.794Z,12.57
2022-11-13T07:37:06.730Z,13.93
2022-11-13T07:39:51.557Z,13.95
2022-11-13T07:42:37.870Z,13.25
2022-11-13T07:45:24.460Z,13.02
2022-11-13T07:48:09.486Z,12.35
2022-11-13T07:50:54.851Z,12.73
2022-11-13T07:53:40.049Z,12.93
2022-11-13T07:56:25.369Z,12.98
2022-11-13T07:59:11.569Z,12.68
2022-11-13T08:01:56.494Z,12.57
2022-11-13T08:04:41.711Z,13.73
2022-11-13T08:07:26.790Z,12.80
2022-11-13T08:10:12.945Z,12.18
2022-11-13T08:13:02.487Z,13.90
2022-11-13T08:15:47.597Z,13.88
2022-11-13T08:18:32.471Z,14.48
2022-11-13T08:21:18.440Z,14.35
2022-11-13T08:24:03.550Z,14.55
2022-11-13T08:26:48.284Z,13.55
2022-11-13T08:29:33.375Z,13.00
2022-11-13T08:32:19.640Z,12.93
2022-11-13T08:35:04.497Z,12.98
2022-11-13T08:37:49.383Z,12.95
2022-11-13T08:40:34.710Z,13.02
2022-11-13T08:43:19.690Z,12.95
2022-11-13T08:46:04.549Z,13.07
2022-11-13T08:48:49.558Z,13.07
2022-11-13T08:51:34.619Z,13.68
2022-11-13T08:54:20.773Z,12.00
2022-11-13T08:57:06.190Z,12.40
2022-11-13T08:59:51.294Z,12.85
2022-11-13T09:02:36.053Z,12.73
2022-11-13T09:05:20.786Z,12.43
2022-11-13T09:08:06.834Z,12.68
2022-11-13T09:10:52.266Z,12.77
2022-11-13T09:13:42.747Z,12.13
2022-11-13T09:16:29.236Z,12.05
2022-11-13T09:19:14.042Z,12.43
2022-11-13T09:21:58.890Z,12.00
2022-11-13T09:24:44.610Z,11.50
2022-11-13T09:27:30.563Z,12.13
2022-11-13T09:30:15.854Z,12.02
2022-11-13T09:33:01.825Z,11.63
2022-11-13T09:35:46.994Z,10.73
2022-11-13T09:38:32.496Z,11.25
2022-11-13T09:41:20.021Z,11.70
2022-11-13T09:44:23.583Z,11.40
2022-11-13T09:47:14.930Z,11.43
2022-11-13T09:50:20.149Z,11.05
2022-11-13T09:53:05.306Z,11.30
2022-11-13T09:55:57.359Z,10.30
2022-11-13T09:58:51.003Z,9.93
2022-11-13T10:01:43.526Z,10.00
2022-11-13T10:04:40.317Z,10.40
2022-11-13T10:07:35.165Z,10.70
2022-11-13T10:10:28.738Z,10.70
2022-11-13T10:13:16.018Z,9.27
2022-11-13T10:16:05.994Z,9.18
2022-11-13T10:18:51.353Z,9.30
2022-11-13T10:21:42.257Z,9.13
2022-11-13T10:24:28.539Z,9.02
2022-11-13T10:27:14.079Z,9.55
2022-11-13T10:29:59.203Z,9.07
2022-11-13T10:32:44.889Z,9.07
2022-11-13T10:35:42.361Z,8.70
2022-11-13T10:38:50.017Z,8.30
2022-11-13T10:41:50.869Z,8.32
2022-11-13T10:44:37.752Z,8.10
2022-11-13T10:47:42.827Z,8.10
2022-11-13T10:50:33.432Z,7.97
2022-11-13T10:53:19.172Z,8.43
2022-11-13T10:56:12.557Z,8.15
2022-11-13T10:59:04.867Z,7.75
2022-11-13T11:01:50.078Z,8.33
2022-11-13T11:04:34.888Z,8.10
2022-11-13T11:07:23.138Z,7.60
2022-11-13T11:10:22.086Z,7.40
2022-11-13T11:13:11.273Z,7.85
2022-11-13T11:16:01.328Z,7.35
2022-11-13T11:18:49.513Z,6.85
2022-11-13T11:21:36.481Z,6.50
2022-11-13T11:24:26.483Z,7.40
2022-11-13T11:27:30.036Z,6.78
2022-11-13T11:30:26.448Z,7.25
2022-11-13T11:33:15.483Z,7.05
2022-11-13T11:36:21.861Z,6.70
2022-11-13T11:39:25.936Z,6.72
2022-11-13T11:42:17.297Z,6.70
2022-11-13T11:45:17.426Z,6.68
2022-11-13T11:48:04.270Z,6.35
2022-11-13T11:51:17.968Z,6.60
2022-11-13T11:54:12.254Z,5.95
2022-11-13T11:57:00.054Z,5.53
2022-11-13T12:00:02.449Z,5.50
2022-11-13T12:02:50.648Z,6.50
2022-11-13T12:05:41.972Z,6.38
2022-11-13T12:08:35.991Z,5.55
2022-11-13T12:11:27.456Z,5.97
2022-11-13T12:14:12.180Z,5.47
2022-11-13T12:17:15.956Z,5.55
2022-11-13T12:20:01.403Z,4.78
2022-11-13T12:23:00.330Z,5.07
2022-11-13T12:25:50.105Z,5.18
2022-11-13T12:28:48.938Z,5.15
2022-11-13T12:31:52.478Z,5.82
2022-11-13T12:34:46.229Z,5.57
2022-11-13T12:37:51.086Z,6.22
2022-11-13T12:40:51.360Z,5.07
2022-11-13T12:43:54.985Z,5.03
2022-11-13T12:46:41.071Z,5.15
2022-11-13T12:49:28.165Z,5.13
2022-11-13T12:52:16.024Z,5.40
2022-11-13T12:55:05.099Z,5.15
2022-11-13T12:57:50.445Z,5.05
2022-11-13T13:00:35.985Z,4.80
2022-11-13T13:03:38.828Z,5.65
2022-11-13T13:09:20.850Z,5.20
2022-11-13T13:12:14.727Z,4.35
2022-11-13T13:15:09.907Z,4.70
2022-11-13T13:18:01.946Z,4.50
2022-11-13T13:20:58.741Z,4.05
2022-11-13T13:23:48.256Z,3.90
2022-11-13T13:26:44.645Z,3.92
2022-11-13T13:29:30.258Z,3.15
2022-11-13T13:32:22.090Z,3.63
2022-11-13T13:35:29.621Z,2.58
2022-11-13T13:38:18.366Z,2.88
2022-11-13T13:41:16.870Z,2.83
2022-11-13T13:44:17.208Z,2.40
2022-11-13T13:47:10.298Z,2.42
2022-11-13T13:49:55.861Z,2.58
2022-11-13T13:52:43.143Z,2.70
2022-11-13T13:55:39.665Z,1.95
2022-11-13T13:58:35.057Z,2.08
2022-11-13T14:01:47.298Z,2.63
2022-11-13T14:04:43.212Z,2.27
2022-11-13T14:07:30.012Z,2.78
2022-11-13T14:10:17.791Z,2.40
2022-11-13T14:13:03.904Z,2.97
2022-11-13T14:15:48.892Z,2.08
2022-11-13T14:18:35.902Z,2.15
2022-11-13T14:21:24.881Z,1.92
2022-11-13T14:24:15.883Z,2.42
2022-11-13T14:27:03.918Z,2.40
2022-11-13T14:29:49.906Z,2.80
2022-11-13T14:32:46.984Z,2.65
2022-11-13T14:35:32.706Z,2.63
2022-11-13T14:38:20.816Z,2.53
2022-11-13T14:41:08.191Z,2.80
2022-11-13T14:43:54.240Z,2.40
2022-11-13T14:46:45.389Z,2.78
2022-11-13T14:49:32.120Z,2.28
2022-11-13T14:52:24.723Z,2.55
2022-11-13T14:55:20.081Z,2.60
2022-11-13T14:58:05.822Z,2.80
2022-11-13T15:00:50.991Z,2.50
2022-11-13T15:03:39.137Z,3.03
2022-11-13T15:06:27.179Z,2.80
2022-11-13T15:09:20.546Z,2.97
2022-11-13T15:12:05.909Z,2.22
2022-11-13T15:14:51.416Z,2.50
2022-11-13T15:17:41.454Z,3.20
2022-11-13T15:20:27.877Z,2.30
2022-11-13T15:23:16.760Z,2.60
2022-11-13T15:26:01.466Z,3.00
2022-11-13T15:28:46.298Z,2.60
2022-11-13T15:31:35.869Z,2.28
2022-11-13T15:34:23.217Z,2.25
2022-11-13T15:37:17.502Z,2.75
2022-11-13T15:40:02.302Z,2.58
2022-11-13T15:42:47.410Z,2.20
2022-11-13T15:45:32.379Z,2.15
2022-11-13T15:48:17.162Z,2.92
2022-11-13T15:51:02.015Z,3.08
2022-11-13T15:53:49.238Z,3.05
2022-11-13T15:56:34.227Z,4.25
2022-11-13T15:59:18.901Z,4.45
2022-11-13T16:02:04.620Z,4.85
2022-11-13T16:04:56.628Z,4.47
2022-11-13T16:10:27.518Z,5.68
2022-11-13T16:13:12.385Z,5.18
2022-11-13T16:15:57.956Z,5.80
2022-11-13T16:18:43.652Z,5.28
2022-11-13T16:21:28.485Z,5.20
2022-11-13T16:24:13.308Z,6.30
2022-11-13T16:26:58.350Z,5.88
2022-11-13T16:29:44.179Z,6.68
2022-11-13T16:32:29.050Z,6.75
2022-11-13T16:35:14.733Z,6.80
2022-11-13T16:37:59.731Z,8.02
2022-11-13T16:40:45.515Z,8.25
2022-11-13T16:43:30.974Z,8.18
2022-11-13T16:46:20.841Z,7.55
2022-11-13T16:49:05.810Z,9.15
2022-11-13T16:51:51.912Z,9.73
2022-11-13T16:54:36.669Z,9.45
2022-11-13T16:57:22.395Z,9.38
2022-11-13T17:00:08.120Z,11.20
2022-11-13T17:02:53.420Z,10.32
2022-11-13T17:05:38.208Z,11.07
2022-11-13T17:08:23.053Z,11.05
2022-11-13T17:11:10.424Z,10.98
2022-11-13T17:13:56.279Z,10.95
2022-11-13T17:16:41.752Z,10.52
2022-11-13T17:19:26.468Z,10.82
2022-11-13T17:22:12.083Z,10.77
2022-11-13T17:24:57.023Z,10.68
2022-11-13T17:27:41.823Z,11.00
2022-11-13T17:30:26.577Z,11.23
2022-11-13T17:33:15.084Z,12.23
2022-11-13T17:35:59.970Z,13.52
2022-11-13T17:38:46.080Z,13.55
2022-11-13T17:41:32.346Z,13.57
2022-11-13T17:44:17.545Z,13.27
2022-11-13T17:47:04.987Z,14.55
2022-11-13T17:49:49.928Z,15.10
2022-11-13T17:52:34.708Z,17.15
2022-11-13T17:55:19.547Z,15.45
2022-11-13T17:58:04.414Z,14.77
2022-11-13T18:00:49.544Z,16.25
2022-11-13T18:03:34.770Z,15.35
2022-11-13T18:06:20.174Z,15.90
2022-11-13T18:09:05.718Z,16.40
2022-11-13T18:11:50.721Z,17.08
2022-11-13T18:14:35.711Z,15.82
2022-11-13T18:17:23.849Z,16.52
2022-11-13T18:20:09.961Z,16.13
2022-11-13T18:22:54.990Z,16.58
2022-11-13T18:25:40.079Z,18.92
2022-11-13T18:28:24.789Z,20.52
2022-11-13T18:31:10.893Z,18.35
2022-11-13T18:33:57.802Z,18.00
2022-11-13T18:36:42.783Z,17.95
2022-11-13T18:39:27.630Z,17.75
2022-11-13T18:42:12.287Z,17.27
2022-11-13T18:44:59.495Z,17.65
2022-11-13T18:47:46.260Z,17.52
2022-11-13T18:50:31.188Z,17.02
2022-11-13T18:53:15.831Z,15.88
2022-11-13T18:56:01.466Z,14.48
2022-11-13T18:58:48.742Z,12.70
2022-11-13T19:01:35.013Z,13.55
2022-11-13T19:04:24.134Z,13.43
2022-11-13T19:07:13.163Z,12.32
2022-11-13T19:09:59.304Z,11.70
2022-11-13T19:12:46.044Z,11.88
2022-11-13T19:15:30.992Z,12.95
2022-11-13T19:18:16.685Z,12.50
2022-11-13T19:21:08.715Z,14.70
2022-11-13T19:23:53.640Z,14.60
2022-11-13T19:26:41.114Z,14.45
2022-11-13T19:29:28.263Z,16.13
2022-11-13T19:32:16.312Z,15.48
2022-11-13T19:35:01.534Z,16.02
2022-11-13T19:37:46.873Z,15.15
2022-11-13T19:40:31.943Z,17.05
2022-11-13T19:43:22.158Z,14.68
2022-11-13T19:46:09.266Z,15.57
2022-11-13T19:48:54.109Z,15.07
2022-11-13T19:51:39.313Z,16.98
2022-11-13T19:54:24.226Z,16.67
2022-11-13T19:57:09.108Z,16.10
2022-11-13T19:59:54.891Z,17.50
2022-11-13T20:02:39.738Z,16.85
2022-11-13T20:05:24.485Z,16.80
2022-11-13T20:08:18.967Z,15.32
2022-11-13T20:11:04.945Z,14.90
2022-11-13T20:13:50.293Z,15.15
2022-11-13T20:16:36.992Z,14.95
2022-11-13T20:19:22.604Z,15.13
2022-11-13T20:22:08.394Z,14.80
2022-11-13T20:24:56.402Z,16.42
2022-11-13T20:27:46.035Z,15.95
2022-11-13T20:30:32.442Z,15.05
2022-11-13T20:33:22.206Z,15.68
2022-11-13T20:36:08.075Z,15.73
2022-11-13T20:38:55.312Z,15.43
2022-11-13T20:41:40.440Z,14.65
2022-11-13T20:44:25.153Z,14.52
2022-11-13T20:47:10.078Z,14.07
2022-11-13T20:49:54.835Z,13.63
2022-11-13T20:52:40.334Z,14.30
2022-11-13T20:55:25.300Z,15.25
2022-11-13T20:58:11.841Z,14.60
2022-11-13T21:01:07.667Z,16.20
2022-11-13T21:03:55.935Z,16.95
2022-11-13T21:06:41.536Z,15.25
2022-11-13T21:09:27.434Z,16.20
2022-11-13T21:12:12.550Z,17.15
2022-11-13T21:14:58.825Z,16.40
2022-11-13T21:17:43.927Z,17.50
2022-11-13T21:20:33.213Z,17.30
2022-11-13T21:23:18.555Z,17.50
2022-11-13T21:26:06.825Z,16.83
2022-11-13T21:28:56.098Z,17.90
2022-11-13T21:31:44.961Z,16.90
2022-11-13T21:34:30.895Z,16.42
2022-11-13T21:37:15.979Z,15.35
2022-11-13T21:40:01.117Z,15.55
2022-11-13T21:42:48.317Z,15.63
2022-11-13T21:45:33.689Z,16.60
2022-11-13T21:48:18.871Z,15.48
2022-11-13T21:51:03.708Z,15.52
2022-11-13T21:53:48.514Z,15.85
2022-11-13T21:56:34.852Z,14.98
2022-11-13T21:59:19.859Z,17.25
2022-11-13T22:02:04.556Z,15.50
2022-11-13T22:04:55.311Z,15.93
2022-11-13T22:07:40.315Z,15.10
2022-11-13T22:10:25.118Z,16.48
2022-11-13T22:13:09.754Z,16.13
2022-11-13T22:15:54.712Z,16.58
2022-11-13T22:18:39.569Z,17.63
2022-11-13T22:21:25.158Z,16.65
2022-11-13T22:24:10.324Z,18.45
2022-11-13T22:26:55.322Z,16.67
2022-11-13T22:29:40.167Z,18.20
2022-11-13T22:32:24.992Z,17.95
2022-11-13T22:35:09.830Z,17.00
2022-11-13T22:37:54.591Z,17.33
2022-11-13T22:40:39.447Z,16.83
2022-11-13T22:43:24.165Z,16.15
2022-11-13T22:46:09.939Z,15.02
2022-11-13T22:48:55.228Z,16.13
2022-11-13T22:51:42.512Z,14.88
2022-11-13T22:54:27.479Z,15.10
2022-11-13T22:57:12.194Z,14.65
2022-11-13T22:59:56.988Z,15.40
2022-11-13T23:02:46.889Z,14.23
2022-11-13T23:05:35.109Z,15.32
2022-11-13T23:08:20.209Z,15.00
2022-11-13T23:11:10.111Z,14.75
2022-11-13T23:13:56.589Z,15.07
2022-11-13T23:16:41.647Z,15.63
2022-11-13T23:19:26.586Z,15.02
2022-11-13T23:22:11.341Z,14.63
2022-11-13T23:24:58.702Z,15.32
2022-11-13T23:27:43.791Z,16.95
2022-11-13T23:30:28.654Z,16.02
2022-11-13T23:33:13.499Z,16.38
2022-11-13T23:35:59.523Z,15.98
2022-11-13T23:38:45.136Z,17.58
2022-11-13T23:41:29.749Z,18.23
2022-11-13T23:44:14.594Z,17.08
2022-11-13T23:46:59.314Z,17.58
2022-11-13T23:49:44.081Z,18.50
2022-11-13T23:52:28.760Z,18.73
2022-11-13T23:55:13.618Z,20.30
2022-11-13T23:57:59.375Z,20.17
